Time;durP1;ratioP1;P1;durP2;ratioP2;P2;SDS_P1;SDS_P2;PMS_P1;PMS_P2;Temp;Humidity;BMP_temperature;BMP_pressure;BME280_temperature;BME280_humidity;BME280_pressure;Samples;Min_cycle;Max_cycle;Signal;HPM_P1;HPM_P2
2022/06/13 00:01:42;;;;;;;6.75;3.05;;;19.60;70.20;;;;;;5063206;28;20111;-71
2022/06/13 00:04:27;;;;;;;;;;;19.80;70.50;;;;;;5063549;28;20199;-72
2022/06/13 00:07:11;;;;;;;6.60;2.75;;;19.60;70.80;;;;;;5076292;28;19916;-71
2022/06/13 00:09:56;;;;;;;4.72;3.00;;;19.40;71.50;;;;;;5098922;28;20050;-71
2022/06/13 00:12:42;;;;;;;6.00;2.95;;;19.40;71.90;;;;;;5112967;28;20046;-71
2022/06/13 00:15:26;;;;;;;6.13;3.13;;;19.40;71.80;;;;;;5086075;28;20108;-72
2022/06/13 00:18:10;;;;;;;9.10;3.72;;;19.30;72.50;;;;;;5091696;28;20141;-72
2022/06/13 00:20:55;;;;;;;10.57;3.47;;;19.30;73.10;;;;;;5089697;28;20104;-72
2022/06/13 00:23:40;;;;;;;4.88;2.90;;;19.30;73.40;;;;;;5098207;28;20104;-72
2022/06/13 00:26:25;;;;;;;8.40;3.15;;;19.30;73.40;;;;;;5097771;28;20047;-71
2022/06/13 00:29:10;;;;;;;7.25;2.90;;;19.10;73.70;;;;;;5051911;28;20062;-71
2022/06/13 00:31:54;;;;;;;8.25;3.35;;;19.10;74.00;;;;;;5084715;28;20088;-70
2022/06/13 00:34:39;;;;;;;;;;;19.10;74.00;;;;;;5101012;28;20043;-71
2022/06/13 00:37:24;;;;;;;8.85;3.40;;;19.00;74.60;;;;;;5101533;28;19915;-71
2022/06/13 00:40:09;;;;;;;8.57;3.33;;;18.80;75.30;;;;;;5088647;28;20039;-71
2022/06/13 00:42:54;;;;;;;9.93;3.30;;;18.70;75.90;;;;;;5103458;28;20116;-71
2022/06/13 00:45:39;;;;;;;6.50;3.42;;;18.80;75.70;;;;;;5086358;28;20045;-71
2022/06/13 00:48:28;;;;;;;7.18;3.03;;;18.80;75.70;;;;;;5101033;28;20126;-70
2022/06/13 00:51:14;;;;;;;6.63;3.22;;;18.90;76.10;;;;;;5114930;28;20042;-70
2022/06/13 00:53:58;;;;;;;7.88;3.67;;;18.70;77.20;;;;;;5092649;28;20035;-70
2022/06/13 00:56:43;;;;;;;4.70;2.97;;;18.80;77.20;;;;;;5085689;28;20576;-71
2022/06/13 00:59:31;;;;;;;7.75;3.70;;;18.90;77.10;;;;;;5101538;28;20548;-71
2022/06/13 01:02:15;;;;;;;8.70;3.75;;;19.00;77.30;;;;;;5086593;28;20445;-71
2022/06/13 01:05:00;;;;;;;7.55;4.22;;;18.80;78.20;;;;;;5107100;28;20054;-70
2022/06/13 01:07:46;;;;;;;6.85;3.53;;;18.90;78.50;;;;;;5109213;28;20046;-71
2022/06/13 01:13:52;;;;;;;8.38;3.42;;;18.80;79.20;;;;;;5110252;28;20111;-71
2022/06/13 01:16:58;;;;;;;10.93;4.40;;;18.70;79.90;;;;;;5119931;28;20039;-71
2022/06/13 01:20:21;;;;;;;7.40;3.90;;;18.80;80.20;;;;;;5102188;28;20035;-71
2022/06/13 01:23:21;;;;;;;9.50;3.92;;;18.70;80.60;;;;;;5103097;28;20035;-72
2022/06/13 01:26:19;;;;;;;13.00;4.53;;;18.70;80.90;;;;;;5102611;28;20035;-70
2022/06/13 01:29:43;;;;;;;10.77;4.45;;;18.60;81.40;;;;;;5100765;28;20492;-71
2022/06/13 01:32:39;;;;;;;10.25;3.72;;;18.60;81.90;;;;;;5086867;28;20066;-72
2022/06/13 01:35:42;;;;;;;8.00;4.93;;;18.60;81.80;;;;;;5107484;28;20056;-70
2022/06/13 01:38:54;;;;;;;8.50;4.35;;;18.40;82.80;;;;;;5120943;28;20088;-71
2022/06/13 01:41:41;;;;;;;11.27;4.20;;;18.40;83.10;;;;;;5105447;28;20035;-71
2022/06/13 01:44:45;;;;;;;10.63;4.43;;;18.40;83.10;;;;;;5099430;28;20039;-71
2022/06/13 01:47:33;;;;;;;9.90;4.57;;;18.40;83.10;;;;;;5103306;28;20023;-72
2022/06/13 01:50:26;;;;;;;7.63;4.18;;;18.30;83.60;;;;;;5106786;28;20073;-72
2022/06/13 01:53:20;;;;;;;12.15;4.07;;;18.20;83.90;;;;;;5122698;28;20076;-71
2022/06/13 01:56:08;;;;;;;10.18;4.63;;;18.30;84.20;;;;;;5096875;28;20096;-72
2022/06/13 01:59:09;;;;;;;13.32;4.78;;;18.20;84.50;;;;;;5087019;28;20073;-72
2022/06/13 02:02:01;;;;;;;7.93;4.55;;;18.20;84.70;;;;;;5102777;28;20089;-72
2022/06/13 02:05:04;;;;;;;9.18;4.57;;;18.20;84.80;;;;;;5087925;28;20039;-72
2022/06/13 02:07:57;;;;;;;12.60;4.45;;;18.20;84.90;;;;;;5101550;28;20034;-72
2022/06/13 02:10:48;;;;;;;12.07;4.88;;;18.20;84.80;;;;;;5099594;28;20032;-71
2022/06/13 02:14:09;;;;;;;11.18;5.28;;;18.10;85.20;;;;;;5101891;28;20097;-71
2022/06/13 02:17:07;;;;;;;16.90;8.00;;;18.10;85.40;;;;;;5018376;28;20076;-71
2022/06/13 02:20:10;;;;;;;10.75;4.85;;;18.20;85.30;;;;;;5103385;28;20174;-72
2022/06/13 02:23:01;;;;;;;9.40;4.30;;;18.20;85.30;;;;;;5098449;28;20034;-72
2022/06/13 02:25:51;;;;;;;10.38;5.28;;;18.20;85.50;;;;;;5096291;28;20050;-72
2022/06/13 02:28:44;;;;;;;7.70;4.53;;;18.20;85.60;;;;;;5101891;28;20050;-71
2022/06/13 02:31:49;;;;;;;12.85;4.30;;;18.00;86.10;;;;;;5102222;28;20023;-72
2022/06/13 02:34:39;;;;;;;11.73;5.00;;;17.90;86.50;;;;;;5087516;28;20031;-71
2022/06/13 02:37:37;;;;;;;11.00;4.97;;;17.80;87.40;;;;;;5071047;28;20048;-71
2022/06/13 02:40:45;;;;;;;10.27;4.82;;;17.60;88.00;;;;;;5105379;28;20043;-72
2022/06/13 02:43:41;;;;;;;7.95;4.15;;;17.40;88.80;;;;;;5109229;28;20089;-71
2022/06/13 02:46:28;;;;;;;14.82;5.80;;;17.40;89.20;;;;;;5101356;28;20112;-71
2022/06/13 02:49:17;;;;;;;8.95;4.80;;;17.50;88.90;;;;;;5102122;28;20035;-71
2022/06/13 02:52:40;;;;;;;9.02;4.75;;;17.60;89.20;;;;;;5101409;28;20075;-72
2022/06/13 02:55:25;;;;;;;9.90;4.53;;;17.60;88.80;;;;;;5094421;28;20471;-72
2022/06/13 02:58:16;;;;;;;12.88;5.38;;;17.50;89.20;;;;;;5120279;28;20061;-71
2022/06/13 03:01:10;;;;;;;11.50;5.50;;;17.20;90.00;;;;;;5089346;28;20039;-71
2022/06/13 03:04:11;;;;;;;9.95;5.20;;;17.10;90.30;;;;;;5100013;28;20109;-71
2022/06/13 03:07:11;;;;;;;10.32;5.03;;;17.10;90.30;;;;;;5099781;28;20112;-71
2022/06/13 03:10:07;;;;;;;8.93;5.10;;;16.90;90.40;;;;;;5084529;28;20071;-70
2022/06/13 03:13:08;;;;;;;12.57;5.18;;;16.80;90.70;;;;;;5083290;28;20088;-70
2022/06/13 03:16:02;;;;;;;10.32;5.55;;;16.70;90.80;;;;;;5098258;28;20391;-70
2022/06/13 03:18:50;;;;;;;11.80;5.20;;;16.70;90.60;;;;;;5098322;28;20035;-72
2022/06/13 03:21:45;;;;;;;10.90;4.90;;;16.70;90.30;;;;;;5070345;28;20088;-71
2022/06/13 03:24:45;;;;;;;10.50;4.53;;;16.50;90.40;;;;;;5100024;28;20089;-71
2022/06/13 03:27:37;;;;;;;10.85;4.93;;;16.50;90.20;;;;;;5083230;28;20123;-71
2022/06/13 03:30:25;;;;;;;9.02;4.35;;;16.70;90.10;;;;;;5100968;28;20038;-72
2022/06/13 03:36:31;;;;;;;13.73;5.07;;;16.70;89.10;;;;;;5112653;28;20159;-71
2022/06/13 03:39:21;;;;;;;12.05;4.70;;;16.80;89.60;;;;;;5087722;28;20046;-71
2022/06/13 03:42:17;;;;;;;14.93;5.35;;;16.80;89.40;;;;;;5103508;28;20034;-70
2022/06/13 03:45:16;;;;;;;9.50;4.30;;;16.80;89.70;;;;;;5076624;28;20042;-71
2022/06/13 03:48:08;;;;;;;12.15;4.65;;;16.90;89.40;;;;;;5105733;28;20062;-71
2022/06/13 03:51:00;;;;;;;10.77;5.20;;;16.90;88.70;;;;;;5105294;28;20043;-72
2022/06/13 03:53:52;;;;;;;10.63;5.55;;;17.10;88.40;;;;;;5084890;28;20058;-71
2022/06/13 03:56:59;;;;;;;41.00;25.10;;;17.10;88.40;;;;;;5118440;28;20039;-72
2022/06/13 03:59:56;;;;;;;9.02;4.40;;;17.00;88.60;;;;;;5119702;28;20467;-72
2022/06/13 04:02:44;;;;;;;14.38;8.70;;;17.00;87.60;;;;;;5119940;28;20032;-72
2022/06/13 04:05:42;;;;;;;11.10;4.70;;;16.90;87.70;;;;;;5082830;28;20046;-71
2022/06/13 04:08:29;;;;;;;10.48;4.45;;;16.90;87.20;;;;;;5087940;28;20034;-71
2022/06/13 04:11:45;;;;;;;12.77;4.70;;;17.00;86.60;;;;;;5102131;28;20165;-72
2022/06/13 04:14:56;;;;;;;8.65;4.75;;;17.00;85.80;;;;;;5090015;28;20085;-71
2022/06/13 04:17:43;;;;;;;12.25;4.78;;;16.90;86.20;;;;;;5063118;28;20187;-71
2022/06/13 04:20:37;;;;;;;7.18;4.45;;;16.90;85.80;;;;;;5104318;28;20062;-72
2022/06/13 04:23:55;;;;;;;10.20;5.00;;;16.90;85.70;;;;;;5100825;28;20042;-71
2022/06/13 04:26:57;;;;;;;10.90;5.20;;;16.80;85.40;;;;;;5083334;28;20062;-71
2022/06/13 04:29:56;;;;;;;12.07;5.03;;;16.80;85.60;;;;;;5113252;28;20074;-72
2022/06/13 04:33:09;;;;;;;10.10;4.68;;;16.70;85.60;;;;;;5116113;28;20031;-71
2022/06/13 04:35:54;;;;;;;10.93;4.90;;;16.80;85.90;;;;;;5103026;28;20058;-70
2022/06/13 04:38:46;;;;;;;8.00;4.93;;;16.80;86.60;;;;;;5086517;28;20382;-71
2022/06/13 04:41:35;;;;;;;10.90;5.05;;;16.90;86.10;;;;;;5118132;28;20066;-72
2022/06/13 04:44:23;;;;;;;10.00;5.38;;;16.70;86.40;;;;;;5071655;28;20089;-70
2022/06/13 04:47:08;;;;;;;14.43;6.13;;;16.60;86.90;;;;;;5097308;28;20035;-71
2022/06/13 04:49:58;;;;;;;9.20;4.55;;;16.70;86.70;;;;;;5097239;28;20035;-71
2022/06/13 04:52:46;;;;;;;9.40;4.93;;;16.80;86.80;;;;;;5097643;28;20494;-70
2022/06/13 04:55:46;;;;;;;10.07;4.75;;;16.80;87.20;;;;;;5097371;28;20395;-70
2022/06/13 04:58:33;;;;;;;7.80;4.85;;;17.00;86.90;;;;;;5088494;28;20042;-70
2022/06/13 05:01:23;;;;;;;12.02;5.05;;;17.00;85.50;;;;;;5104322;28;20047;-71
2022/06/13 05:04:15;;;;;;;11.45;5.05;;;17.10;84.90;;;;;;5108389;28;20043;-71
2022/06/13 05:07:09;;;;;;;8.13;4.22;;;17.10;84.70;;;;;;5096955;28;20502;-70
2022/06/13 05:10:01;;;;;;;12.63;5.15;;;17.10;84.30;;;;;;5097528;28;20049;-71
2022/06/13 05:12:47;;;;;;;12.57;4.78;;;17.00;84.40;;;;;;5102416;28;20038;-71
2022/06/13 05:15:33;;;;;;;10.10;4.75;;;16.80;84.70;;;;;;5100528;28;20089;-71
2022/06/13 05:18:51;;;;;;;12.50;4.88;;;16.90;84.70;;;;;;5105272;28;20050;-74
2022/06/13 05:21:47;;;;;;;9.60;4.68;;;17.00;84.40;;;;;;5089303;28;20039;-74
2022/06/13 05:24:48;;;;;;;10.10;4.20;;;17.20;83.90;;;;;;5099655;28;20506;-72
2022/06/13 05:27:32;;;;;;;8.95;4.97;;;17.30;82.50;;;;;;5101493;28;20466;-73
2022/06/13 05:30:17;;;;;;;11.73;4.63;;;17.20;82.40;;;;;;5072630;28;20039;-72
2022/06/13 05:33:04;;;;;;;12.98;5.13;;;17.10;81.70;;;;;;5090290;28;20163;-73
2022/06/13 05:35:52;;;;;;;7.85;4.15;;;17.20;82.10;;;;;;5091115;28;20101;-72
2022/06/13 05:38:45;;;;;;;10.70;4.95;;;17.50;81.20;;;;;;5075950;28;20098;-73
2022/06/13 05:41:30;;;;;;;8.95;4.18;;;17.60;80.60;;;;;;5129588;28;20038;-73
2022/06/13 05:44:14;;;;;;;12.75;4.65;;;17.60;80.20;;;;;;5097402;28;20054;-72
2022/06/13 05:46:58;;;;;;;11.02;4.50;;;17.70;79.30;;;;;;5094907;28;20455;-73
2022/06/13 05:49:43;;;;;;;;;;;17.50;79.30;;;;;;5108922;28;20095;-72
2022/06/13 05:52:27;;;;;;;9.18;4.97;;;17.50;80.00;;;;;;5089442;28;19926;-72
2022/06/13 05:55:12;;;;;;;8.95;4.07;;;17.40;80.40;;;;;;5092993;28;20376;-73
2022/06/13 05:57:57;;;;;;;8.95;4.15;;;17.60;80.00;;;;;;5085311;28;20062;-71
2022/06/13 06:00:50;;;;;;;10.70;4.53;;;17.80;79.70;;;;;;5101994;28;20035;-73
2022/06/13 06:03:34;;;;;;;9.10;3.88;;;17.70;80.00;;;;;;5086299;28;20039;-73
2022/06/13 06:06:22;;;;;;;8.52;4.03;;;17.70;80.20;;;;;;5105061;28;20063;-72
2022/06/13 06:09:07;;;;;;;8.68;4.50;;;17.70;80.20;;;;;;5092658;28;20067;-72
2022/06/13 06:11:51;;;;;;;11.18;4.40;;;17.70;80.10;;;;;;5119269;28;20038;-72
2022/06/13 06:14:37;;;;;;;9.63;4.50;;;17.80;80.70;;;;;;5116483;28;20042;-72
2022/06/13 06:17:21;;;;;;;8.27;3.53;;;17.80;79.40;;;;;;5106887;28;20254;-73
2022/06/13 06:20:07;;;;;;;10.55;4.57;;;17.70;79.00;;;;;;5108142;28;20051;-73
2022/06/13 06:22:51;;;;;;;9.82;4.15;;;17.80;78.70;;;;;;5106379;28;20401;-75
2022/06/13 06:25:36;;;;;;;;;;;17.80;78.60;;;;;;5096009;28;20063;-73
2022/06/13 06:28:24;;;;;;;6.97;3.87;;;17.80;78.50;;;;;;5107538;28;19918;-73
2022/06/13 06:31:10;;;;;;;10.63;3.83;;;17.80;77.40;;;;;;5100302;28;20095;-73
2022/06/13 06:33:54;;;;;;;7.07;3.90;;;17.60;76.80;;;;;;5102739;28;20133;-74
2022/06/13 06:36:40;;;;;;;9.45;3.58;;;17.60;76.30;;;;;;5103580;28;20054;-73
2022/06/13 06:39:27;;;;;;;9.48;4.05;;;17.70;76.30;;;;;;5097998;28;20073;-74
2022/06/13 06:42:11;;;;;;;8.57;4.00;;;17.90;75.50;;;;;;5085503;28;20115;-74
2022/06/13 06:44:56;;;;;;;13.43;4.75;;;17.80;75.40;;;;;;5102007;28;20074;-73
2022/06/13 06:47:41;;;;;;;11.18;3.58;;;17.80;75.40;;;;;;5099349;28;20100;-74
2022/06/13 06:50:35;;;;;;;9.43;4.20;;;17.70;76.20;;;;;;5103128;28;20110;-73
2022/06/13 06:53:24;;;;;;;10.57;4.72;;;17.70;76.60;;;;;;5105153;28;20540;-72
2022/06/13 07:02:26;;;;;;;10.35;4.47;;;17.60;77.50;;;;;;5113644;28;20445;-73
2022/06/13 07:05:14;;;;;;;11.05;4.75;;;17.60;78.40;;;;;;5105024;28;20042;-73
2022/06/13 07:07:59;;;;;;;7.85;4.38;;;17.40;79.10;;;;;;5103762;28;20058;-73
2022/06/13 07:10:50;;;;;;;8.48;5.10;;;17.30;79.80;;;;;;5097933;28;20043;-75
2022/06/13 07:13:34;;;;;;;11.75;4.55;;;17.40;80.80;;;;;;5092709;28;20034;-74
2022/06/13 07:16:18;;;;;;;9.73;4.75;;;17.40;80.10;;;;;;5103757;28;20027;-73
2022/06/13 07:19:06;;;;;;;9.77;4.50;;;17.60;80.40;;;;;;5089618;28;20093;-73
2022/06/13 07:21:57;;;;;;;10.35;4.57;;;17.30;80.80;;;;;;5076915;28;20043;-72
2022/06/13 07:24:41;;;;;;;12.25;4.88;;;17.30;80.30;;;;;;5096584;28;20062;-72
2022/06/13 07:27:26;;;;;;;9.30;5.10;;;17.30;80.40;;;;;;5105831;28;20138;-73
2022/06/13 07:30:12;;;;;;;8.68;4.13;;;17.30;79.60;;;;;;5088267;28;20058;-73
2022/06/13 07:32:57;;;;;;;10.77;4.53;;;17.20;79.10;;;;;;5113457;28;20092;-75
2022/06/13 07:35:42;;;;;;;;;;;17.20;79.50;;;;;;5108055;28;20042;-74
2022/06/13 07:38:26;;;;;;;10.63;4.18;;;17.20;79.80;;;;;;5087690;28;19954;-74
2022/06/13 07:41:17;;;;;;;10.77;3.88;;;17.50;79.50;;;;;;5102569;28;20031;-73
2022/06/13 07:44:02;;;;;;;10.85;4.85;;;17.50;78.80;;;;;;5107645;28;20047;-73
2022/06/13 07:46:46;;;;;;;9.45;4.38;;;17.50;78.60;;;;;;5104082;28;20455;-73
2022/06/13 07:49:31;;;;;;;10.90;4.10;;;17.50;78.50;;;;;;5106957;28;20169;-73
2022/06/13 07:52:15;;;;;;;16.45;4.88;;;17.60;78.20;;;;;;5098441;28;20065;-76
2022/06/13 07:54:59;;;;;;;9.13;4.05;;;17.80;77.10;;;;;;5092648;28;20062;-73
2022/06/13 07:57:45;;;;;;;11.95;4.50;;;18.10;77.00;;;;;;5111843;28;20043;-74
2022/06/13 08:00:35;;;;;;;10.77;4.07;;;18.20;76.30;;;;;;5105272;28;20043;-73
2022/06/13 08:03:31;;;;;;;9.15;4.10;;;18.20;76.30;;;;;;5073167;28;20035;-73
2022/06/13 08:06:16;;;;;;;10.75;5.00;;;18.40;75.50;;;;;;5091368;28;20546;-75
2022/06/13 08:09:03;;;;;;;;;;;18.30;75.00;;;;;;5105996;28;20031;-74
2022/06/13 08:11:50;;;;;;;12.63;4.35;;;18.20;75.50;;;;;;5111273;28;19914;-73
2022/06/13 08:14:35;;;;;;;8.20;4.00;;;18.00;76.30;;;;;;5091594;28;20062;-75
2022/06/13 08:17:23;;;;;;;;;;;18.00;76.60;;;;;;5087460;28;20062;-73
2022/06/13 08:20:09;;;;;;;6.55;4.10;;;18.10;77.30;;;;;;5106737;28;19918;-72
2022/06/13 08:22:55;;;;;;;10.15;4.18;;;18.20;76.20;;;;;;5094921;28;20127;-72
2022/06/13 08:25:41;;;;;;;15.18;4.68;;;18.00;76.40;;;;;;5095101;28;20038;-73
2022/06/13 08:28:25;;;;;;;7.43;3.95;;;17.80;76.70;;;;;;5094464;28;20050;-73
2022/06/13 08:31:12;;;;;;;13.55;4.68;;;17.60;77.80;;;;;;5089460;28;20085;-74
2022/06/13 08:33:57;;;;;;;12.68;4.95;;;17.50;78.30;;;;;;5097032;28;20039;-74
2022/06/13 08:36:42;;;;;;;10.88;5.20;;;17.70;78.00;;;;;;5088881;28;20046;-73
2022/06/13 08:39:29;;;;;;;11.52;4.50;;;17.80;78.20;;;;;;5084788;28;20030;-73
2022/06/13 08:42:38;;;;;;;7.93;4.00;;;18.00;77.90;;;;;;5076134;28;20039;-74
2022/06/13 08:45:32;;;;;;;11.13;4.90;;;18.00;77.60;;;;;;5078623;28;20111;-73
2022/06/13 08:48:30;;;;;;;9.57;4.40;;;18.30;77.30;;;;;;5079475;28;20106;-73
2022/06/13 08:51:30;;;;;;;9.93;4.68;;;18.50;76.80;;;;;;5094519;28;20026;-73
2022/06/13 08:54:22;;;;;;;10.65;4.15;;;18.70;76.40;;;;;;5099982;28;20128;-74
2022/06/13 08:57:09;;;;;;;7.65;4.07;;;18.90;76.00;;;;;;5118898;28;20150;-74
2022/06/13 09:00:03;;;;;;;9.05;4.30;;;18.80;76.50;;;;;;5105899;28;20197;-74
2022/06/13 09:03:00;;;;;;;10.15;4.38;;;19.00;76.20;;;;;;5100163;28;20063;-72
2022/06/13 09:05:48;;;;;;;7.15;3.92;;;19.00;76.60;;;;;;5089383;28;20035;-72
2022/06/13 09:08:45;;;;;;;7.45;4.05;;;19.30;76.40;;;;;;5100493;28;20547;-72
2022/06/13 09:11:38;;;;;;;11.38;4.40;;;19.50;75.10;;;;;;5115913;28;20034;-72
2022/06/13 09:14:25;;;;;;;12.18;4.40;;;19.40;75.80;;;;;;5121975;28;20074;-73
2022/06/13 09:17:33;;;;;;;8.98;4.05;;;19.30;75.40;;;;;;5122221;28;20042;-73
2022/06/13 09:20:34;;;;;;;11.88;4.38;;;19.60;75.80;;;;;;5122782;28;20162;-73
2022/06/13 09:23:32;;;;;;;10.80;4.32;;;19.70;76.10;;;;;;5101669;28;20086;-74
2022/06/13 09:26:21;;;;;;;8.60;4.00;;;20.10;74.90;;;;;;5111536;28;20513;-73
2022/06/13 09:29:19;;;;;;;10.07;4.30;;;20.10;74.10;;;;;;5104841;28;20504;-72
2022/06/13 09:32:21;;;;;;;7.95;4.25;;;20.10;73.90;;;;;;5101399;28;20044;-73
2022/06/13 09:35:19;;;;;;;7.63;4.10;;;19.90;74.00;;;;;;5101301;28;20039;-73
2022/06/13 09:38:21;;;;;;;10.48;4.60;;;19.70;74.70;;;;;;5121823;28;20145;-74
2022/06/13 09:41:34;;;;;;;7.57;4.03;;;19.40;75.70;;;;;;5106103;28;20046;-73
2022/06/13 09:44:37;;;;;;;11.20;4.45;;;19.10;76.30;;;;;;5104541;28;20108;-74
2022/06/13 09:47:55;;;;;;;10.48;4.47;;;19.00;77.40;;;;;;5085987;28;20081;-72
2022/06/13 09:50:59;;;;;;;15.50;4.72;;;18.80;77.40;;;;;;5104078;28;20031;-72
2022/06/13 09:53:49;;;;;;;7.30;3.72;;;17.90;79.60;;;;;;5112941;28;20038;-72
2022/06/13 09:56:53;;;;;;;11.55;4.72;;;17.40;81.10;;;;;;5093113;28;20035;-72
2022/06/13 09:59:40;;;;;;;8.90;4.85;;;17.10;82.80;;;;;;5102672;28;20034;-73
2022/06/13 10:03:11;;;;;;;14.25;4.25;;;17.00;83.80;;;;;;5109608;28;20034;-74
2022/06/13 10:06:15;;;;;;;8.60;4.53;;;17.00;84.20;;;;;;5067108;28;20116;-74
2022/06/13 10:09:03;;;;;;;11.30;5.18;;;16.90;85.00;;;;;;5111247;28;20035;-73
2022/06/13 10:12:03;;;;;;;13.27;6.28;;;17.00;86.10;;;;;;5104442;28;20474;-74
2022/06/13 10:15:08;;;;;;;11.73;5.65;;;16.90;87.50;;;;;;5114619;28;20045;-72
2022/06/13 10:17:57;;;;;;;;;;;16.70;89.40;;;;;;5108015;28;20039;-75
2022/06/13 10:21:13;;;;;;;11.70;5.35;;;16.70;90.50;;;;;;5101560;28;19926;-74
2022/06/13 10:24:24;;;;;;;;;;;16.90;90.70;;;;;;5103850;28;20039;-74
2022/06/13 10:27:45;;;;;;;8.93;5.18;;;16.90;90.80;;;;;;5093111;28;19941;-73
2022/06/13 10:30:39;;;;;;;11.73;4.65;;;17.10;89.80;;;;;;5103085;28;20054;-74
2022/06/13 10:33:29;;;;;;;10.68;5.07;;;17.30;90.10;;;;;;5104669;28;20035;-74
2022/06/13 10:36:33;;;;;;;9.55;4.60;;;17.60;90.40;;;;;;5106114;28;20094;-75
2022/06/13 10:39:21;;;;;;;7.13;4.00;;;17.90;87.90;;;;;;5100111;28;20039;-73
2022/06/13 10:42:12;;;;;;;9.43;4.95;;;18.20;86.20;;;;;;5098598;28;20093;-73
2022/06/13 10:44:57;;;;;;;7.63;4.35;;;18.20;87.90;;;;;;5102064;28;20088;-72
2022/06/13 10:48:13;;;;;;;7.47;3.97;;;18.10;86.60;;;;;;5118938;28;20107;-73
2022/06/13 10:50:59;;;;;;;6.40;3.42;;;18.00;87.20;;;;;;5098069;28;20414;-73
2022/06/13 10:53:53;;;;;;;7.05;3.83;;;18.00;86.70;;;;;;5117580;28;20085;-75
2022/06/13 10:56:55;;;;;;;6.30;4.20;;;18.10;86.20;;;;;;5106503;28;20062;-74
2022/06/13 10:59:41;;;;;;;7.65;3.92;;;18.10;84.10;;;;;;5091012;28;20060;-75
2022/06/13 11:02:25;;;;;;;7.40;4.03;;;18.10;84.60;;;;;;5113067;28;20039;-74
2022/06/13 11:05:17;;;;;;;7.63;4.57;;;18.10;84.40;;;;;;5109140;28;20026;-74
2022/06/13 11:08:01;;;;;;;7.15;4.10;;;18.10;83.70;;;;;;5120619;28;20517;-73
2022/06/13 11:10:55;;;;;;;6.60;3.67;;;18.10;84.20;;;;;;5079014;28;20047;-74
2022/06/13 11:13:42;;;;;;;7.47;4.13;;;18.20;83.80;;;;;;5086698;28;20058;-74
2022/06/13 11:22:57;;;;;;;7.57;4.03;;;19.00;80.00;;;;;;5100380;28;20449;-75
2022/06/13 11:25:41;;;;;;;7.70;3.78;;;19.10;80.00;;;;;;5097770;28;20897;-75
2022/06/13 11:28:28;;;;;;;6.25;3.30;;;19.10;79.80;;;;;;5084483;28;20169;-78
2022/06/13 11:31:33;;;;;;;6.88;3.30;;;19.40;76.00;;;;;;5090956;28;20107;-74
2022/06/13 11:34:38;;;;;;;6.90;3.77;;;19.20;75.90;;;;;;5120693;28;20023;-75
2022/06/13 11:37:24;;;;;;;8.27;3.00;;;19.40;75.70;;;;;;5120472;28;20257;-75
2022/06/13 11:40:17;;;;;;;6.68;3.03;;;19.50;75.60;;;;;;5090524;28;20398;-75
2022/06/13 11:43:01;;;;;;;6.18;3.33;;;19.40;74.40;;;;;;5104804;28;20111;-74
2022/06/13 11:45:56;;;;;;;6.07;3.10;;;19.40;74.10;;;;;;5119665;28;20038;-76
2022/06/13 11:48:48;;;;;;;6.63;3.88;;;19.60;74.20;;;;;;5104176;28;20041;-75
2022/06/13 11:51:48;;;;;;;6.60;3.08;;;19.50;75.20;;;;;;5103782;28;20031;-74
2022/06/13 11:54:56;;;;;;;4.47;3.08;;;19.70;74.50;;;;;;5116412;28;20319;-75
2022/06/13 11:57:42;;;;;;;11.27;4.00;;;19.60;75.20;;;;;;5101949;28;20056;-75
2022/06/13 12:00:37;;;;;;;7.95;3.88;;;19.80;77.00;;;;;;5083865;28;20030;-75
2022/06/13 12:03:36;;;;;;;7.07;3.38;;;20.10;75.70;;;;;;5101967;28;20062;-77
2022/06/13 12:06:22;;;;;;;8.57;3.70;;;20.20;76.00;;;;;;5103797;28;20043;-75
2022/06/13 12:09:23;;;;;;;6.75;3.42;;;20.10;75.80;;;;;;5097831;28;20123;-74
2022/06/13 12:12:08;;;;;;;8.07;3.85;;;19.90;73.90;;;;;;5102488;28;20045;-74
2022/06/13 12:14:52;;;;;;;9.85;3.35;;;19.90;71.80;;;;;;5105152;28;20089;-75
2022/06/13 12:17:43;;;;;;;4.95;3.30;;;19.90;71.40;;;;;;5085837;28;20119;-75
2022/06/13 12:20:37;;;;;;;7.47;3.30;;;19.80;71.70;;;;;;5102757;28;20031;-78
2022/06/13 12:23:48;;;;;;;7.10;3.43;;;20.10;71.90;;;;;;5097315;28;20031;-75
2022/06/13 12:26:36;;;;;;;5.72;3.40;;;20.50;70.30;;;;;;5097467;28;20065;-75
2022/06/13 12:29:39;;;;;;;7.60;3.10;;;20.60;70.40;;;;;;5097366;28;20042;-75
2022/06/13 12:32:29;;;;;;;6.88;3.70;;;20.20;68.70;;;;;;5099962;28;20130;-77
2022/06/13 12:35:48;;;;;;;9.93;3.70;;;20.20;68.60;;;;;;5097700;28;20027;-75
2022/06/13 12:39:19;;;;;;;8.25;3.75;;;20.00;68.80;;;;;;5099165;28;20074;-75
2022/06/13 12:42:44;;;;;;;4.88;3.45;;;20.10;68.80;;;;;;5073605;28;20075;-75
2022/06/13 12:45:55;;;;;;;7.65;3.67;;;20.40;68.60;;;;;;5090019;28;20109;-74
2022/06/13 12:49:10;;;;;;;7.15;3.42;;;20.90;67.60;;;;;;5097356;28;20136;-74
2022/06/13 12:52:04;;;;;;;7.78;3.70;;;20.70;68.60;;;;;;5096049;28;20092;-74
2022/06/13 12:55:09;;;;;;;5.68;3.25;;;20.60;68.30;;;;;;5078451;28;20127;-74
2022/06/13 12:58:31;;;;;;;7.10;3.80;;;21.00;67.90;;;;;;5099211;28;20386;-76
2022/06/13 13:01:23;;;;;;;6.55;3.88;;;21.20;66.20;;;;;;5102532;28;20035;-74
2022/06/13 13:04:19;;;;;;;7.38;4.07;;;20.90;66.10;;;;;;5100786;28;20546;-74
2022/06/13 13:07:25;;;;;;;7.85;3.75;;;20.80;65.40;;;;;;5100139;28;20561;-75
2022/06/13 13:10:19;;;;;;;;;;;20.40;65.10;;;;;;5099883;28;20283;-76
2022/06/13 13:13:44;;;;;;;8.55;3.42;;;20.40;66.10;;;;;;5116919;28;19923;-75
2022/06/13 13:16:42;;;;;;;9.13;3.40;;;20.60;66.50;;;;;;5103889;28;20031;-74
2022/06/13 13:19:43;;;;;;;8.60;3.63;;;20.70;65.00;;;;;;5117619;28;20074;-75
2022/06/13 13:22:46;;;;;;;6.00;3.25;;;21.30;65.10;;;;;;5117565;28;20054;-76
2022/06/13 13:26:03;;;;;;;8.05;3.58;;;21.50;62.40;;;;;;5101422;28;20450;-75
2022/06/13 13:29:15;;;;;;;6.75;3.38;;;21.90;59.80;;;;;;5085933;28;20076;-77
2022/06/13 13:32:37;;;;;;;9.98;3.50;;;21.90;59.50;;;;;;5104615;28;20039;-76
2022/06/13 13:35:44;;;;;;;7.13;3.60;;;21.40;60.50;;;;;;5102593;28;20501;-77
2022/06/13 13:38:49;;;;;;;9.55;3.70;;;21.00;61.50;;;;;;5107712;28;20034;-75
2022/06/13 13:41:48;;;;;;;13.45;3.95;;;20.60;66.30;;;;;;5108359;28;20030;-76
2022/06/13 13:45:06;;;;;;;9.77;3.80;;;20.00;68.60;;;;;;5124448;28;20223;-74
2022/06/13 13:47:58;;;;;;;9.18;3.60;;;19.80;69.50;;;;;;5122919;28;20034;-75
2022/06/13 13:51:11;;;;;;;7.60;4.15;;;19.70;69.70;;;;;;5108690;28;20112;-73
2022/06/13 13:54:08;;;;;;;7.82;3.22;;;19.50;70.60;;;;;;5122566;28;20126;-75
2022/06/13 13:57:01;;;;;;;11.02;3.60;;;19.40;70.20;;;;;;5115781;28;20019;-76
2022/06/13 13:59:52;;;;;;;13.07;3.17;;;19.20;70.20;;;;;;5124934;28;20409;-74
2022/06/13 14:02:45;;;;;;;7.00;3.13;;;19.30;68.10;;;;;;5093153;28;20038;-76
2022/06/13 14:05:43;;;;;;;5.47;3.25;;;19.70;68.10;;;;;;5121844;28;20164;-73
2022/06/13 14:08:30;;;;;;;8.07;3.22;;;20.00;66.80;;;;;;5123415;28;20043;-75
2022/06/13 14:11:15;;;;;;;8.63;3.63;;;20.00;67.00;;;;;;5092978;28;20082;-75
2022/06/13 14:14:06;;;;;;;5.60;3.13;;;19.80;66.50;;;;;;5107342;28;20034;-74
2022/06/13 14:16:51;;;;;;;10.88;3.72;;;19.50;68.20;;;;;;5093998;28;20094;-75
2022/06/13 14:19:35;;;;;;;;;;;19.50;68.40;;;;;;5093454;28;20237;-75
2022/06/13 14:22:22;;;;;;;7.30;3.60;;;19.30;68.90;;;;;;5122806;28;19918;-75
2022/06/13 14:25:15;;;;;;;7.75;3.83;;;19.10;70.40;;;;;;5108721;28;20456;-73
2022/06/13 14:28:14;;;;;;;8.35;3.67;;;18.90;71.70;;;;;;5123968;28;20049;-75
2022/06/13 14:31:03;;;;;;;5.93;2.97;;;18.90;72.70;;;;;;5122973;28;20454;-75
2022/06/13 14:36:50;;;;;;;5.70;3.28;;;18.80;75.30;;;;;;5123126;28;20034;-74
2022/06/13 14:39:55;;;;;;;7.88;3.58;;;18.80;75.50;;;;;;5106135;28;20035;-76
2022/06/13 14:42:53;;;;;;;10.20;3.40;;;18.60;75.80;;;;;;5103354;28;20035;-74
2022/06/13 14:46:20;;;;;;;9.85;3.00;;;18.20;75.30;;;;;;5099944;28;20043;-75
2022/06/13 14:49:23;;;;;;;6.93;2.50;;;17.70;74.90;;;;;;5097080;28;20034;-75
2022/06/13 14:52:18;;;;;;;4.20;2.50;;;17.50;74.10;;;;;;5101109;28;20027;-74
2022/06/13 14:55:03;;;;;;;5.65;2.72;;;17.20;75.30;;;;;;5099991;28;20047;-76
2022/06/13 14:57:51;;;;;;;;;;;17.20;75.80;;;;;;5095529;28;20046;-75
2022/06/13 15:00:38;;;;;;;6.78;3.03;;;17.10;76.30;;;;;;5120954;28;20366;-74
2022/06/13 15:03:22;;;;;;;4.35;2.80;;;17.30;76.40;;;;;;5108382;28;20039;-76
2022/06/13 15:06:11;;;;;;;7.38;2.80;;;17.30;76.20;;;;;;5108443;28;20043;-76
2022/06/13 15:08:58;;;;;;;5.40;3.35;;;17.40;75.00;;;;;;5123393;28;20088;-76
2022/06/13 15:12:07;;;;;;;6.15;3.00;;;17.40;75.10;;;;;;5106598;28;20026;-75
2022/06/13 15:14:54;;;;;;;5.20;2.83;;;17.40;74.90;;;;;;5105375;28;20094;-75
2022/06/13 15:17:42;;;;;;;6.97;2.90;;;17.60;72.50;;;;;;5106331;28;20030;-75
2022/06/13 15:20:32;;;;;;;4.28;2.50;;;17.70;73.00;;;;;;5120634;28;20062;-76
2022/06/13 15:23:25;;;;;;;7.25;3.17;;;17.90;72.20;;;;;;5099931;28;20062;-75
2022/06/13 15:26:25;;;;;;;7.75;3.63;;;17.80;72.20;;;;;;5085283;28;20051;-74